Flight Track Log - Related Links

Times and Time Zones

All times are in EST time to prevent confusion due to time zone crossing. See the AMF1970 flight status page for this flight to view local times or setup timezone preferences in your user account.

Time Position Orientation Groundspeed Altitude Reporting Facility
EST Latitude Longitude Course Direction KTS MPH feet Rate Location/Type
Fri 10:02:09 AM 47.5225 -122.2950 138° Southeast 116 133 900  Level Seattle Center
Fri 10:03:28 AM 47.4892 -122.2511 138° Southeast 124 143 2,700 1,319 Climbing Seattle Center
Fri 10:03:40 AM 47.4861 -122.2444 124° Southeast 121 139 2,900 1,377 Climbing Seattle Center
Fri 10:04:29 AM 47.4753 -122.1964 108° East 154 177 4,100 1,500 Climbing Seattle Center
Fri 10:04:40 AM 47.4744 -122.1822 95° East 150 173 4,400 1,200 Climbing Seattle Center
Fri 10:05:29 AM 47.4703 -122.1336 97° East 161 185 5,300 1,180 Climbing Seattle Center
Fri 10:05:41 AM 47.4683 -122.1181 100° East 157 181 5,600 982 Climbing Seattle Center
Fri 10:06:24 AM 47.4606 -122.0700 103° East 168 193 6,200 492 Climbing Seattle Center
Fri 10:06:42 AM 47.4603 -122.0469 91° East 174 200 6,100 98 Descending Seattle Center
Fri 10:07:25 AM 47.4544 -121.9850 98° East 222 255 6,300 900 Climbing Seattle Center
Fri 10:07:42 AM 47.4519 -121.9608 99° East 209 241 7,000 1,300 Climbing Seattle Center
Fri 10:08:25 AM 47.4478 -121.9067 96° East 194 223 7,600 885 Climbing Seattle Center
Fri 10:08:43 AM 47.4444 -121.8825 102° East 195 224 7,900 984 Climbing Seattle Center
Fri 10:09:26 AM 47.4369 -121.8306 102° East 186 214 8,600 984 Climbing Seattle Center
Fri 10:09:44 AM 47.4369 -121.8064 90° East 190 219 8,900 380 Climbing Seattle Center
Fri 10:10:45 AM 47.4272 -121.7211 100° East 211 243 9,100 595 Climbing Seattle Center
Fri 10:11:45 AM 47.4106 -121.6419 107° East 203 234 10,100 942 Climbing Seattle Center
Fri 10:12:46 AM 47.4028 -121.5506 97° East 208 239 11,000 639 Climbing Seattle Center
Fri 10:13:47 AM 47.4033 -121.4631 89° East 212 244 11,400 298 Climbing Seattle Center
Fri 10:14:47 AM 47.4033 -121.3789 90° East 206 237 11,600 99 Climbing Seattle Center
Fri 10:15:48 AM 47.3992 -121.2864 94° East 224 258 11,600 49 Level Seattle Center
Fri 10:16:49 AM 47.3922 -121.2069 97° East 222 255 11,700 49 Climbing Seattle Center
Fri 10:17:50 AM 47.3861 -121.1144 96° East 226 260 11,700 -98 Level Seattle Center
Fri 10:18:51 AM 47.3789 -121.0031 95° East 230 265 11,500  Descending Seattle Center
Fri 10:19:51 AM 47.3719 -120.9142 97° East 221 254 11,700  Climbing Seattle Center
Fri 10:20:52 AM 47.3658 -120.8264 96° East 229 264 11,500 -197 Descending Seattle Center

Login

Don't have an account? Register now (free) for customized features, flight alerts, and more!